Black Lake, Canada
Current Conditions -  °F | °C
As of 11:00 AM on Wednesday 26 Nov 2014 (Local Time) from CYSC Reporting Station
Broken Clouds Broken Clouds  
Wind Chill: 26°   Ceiling: 13000
Heat Index: 32°   Visibility: 9mi
Dew Point: 21°   Wind: 6mph
Humidity: 64%   Direction: 290°WNW
Pressure: 30.21"   Gusts: NA
Location:  46.03°N, 71.37°W
Report Text: CYSC 261600Z AUTO 29005KT 270V330 9SM FEW038 BKN130 M00/M06 A3021 RMK SLP240
Loading
Personal Weather Stations






























Interactive Weather Map New forecast layout! Learn more

10-Day Weather Forecast

Advertisements
Track Severe Weather on mobile